createdAt,value
2018-02-21T00:00:00.458Z,71.80
2018-02-21T00:02:30.932Z,72.40
2018-02-21T00:04:57.227Z,72.40
2018-02-21T00:07:23.502Z,72.30
2018-02-21T00:09:50.524Z,72.90
2018-02-21T00:12:19.828Z,73.10
2018-02-21T00:14:46.857Z,73.30
2018-02-21T00:17:13.129Z,73.30
2018-02-21T00:19:39.400Z,73.30
2018-02-21T00:22:11.810Z,73.80
2018-02-21T00:24:38.072Z,73.20
2018-02-21T00:27:05.064Z,73.20
2018-02-21T00:29:31.424Z,73.20
2018-02-21T00:31:57.676Z,73.20
2018-02-21T00:34:23.946Z,73.70
2018-02-21T00:36:50.266Z,73.70
2018-02-21T00:39:17.458Z,73.90
2018-02-21T00:41:44.608Z,74.80
2018-02-21T00:44:11.151Z,73.90
2018-02-21T00:46:37.423Z,74.10
2018-02-21T00:49:04.471Z,74.30
2018-02-21T00:51:31.507Z,74.60
2018-02-21T00:53:57.834Z,74.60
2018-02-21T00:56:24.053Z,74.90
2018-02-21T00:58:50.341Z,75.10
2018-02-21T01:01:16.590Z,75.10
2018-02-21T01:03:42.910Z,75.20
2018-02-21T01:06:09.195Z,75.20
2018-02-21T01:08:36.193Z,74.90
2018-02-21T01:11:04.654Z,74.80
2018-02-21T01:13:31.669Z,75.60
2018-02-21T01:15:57.914Z,75.60
2018-02-21T01:18:24.226Z,75.70
2018-02-21T01:20:50.497Z,76.00
2018-02-21T01:23:25.543Z,76.20
2018-02-21T01:25:52.437Z,76.30
2018-02-21T01:28:20.462Z,76.70
2018-02-21T01:30:46.826Z,76.60
2018-02-21T01:33:13.086Z,76.40
2018-02-21T01:35:39.360Z,76.30
2018-02-21T01:38:05.620Z,76.50
2018-02-21T01:40:31.873Z,76.30
2018-02-21T01:42:58.080Z,76.20
2018-02-21T01:45:24.401Z,75.80
2018-02-21T01:47:50.719Z,74.70
2018-02-21T01:50:16.956Z,74.00
2018-02-21T01:52:43.230Z,74.00
2018-02-21T01:55:09.460Z,74.40
2018-02-21T01:57:35.729Z,74.60
2018-02-21T02:00:02.058Z,75.00
2018-02-21T02:02:29.028Z,75.00
2018-02-21T02:04:56.048Z,74.90
2018-02-21T02:07:22.285Z,74.80
2018-02-21T02:09:48.545Z,74.90
2018-02-21T02:12:14.818Z,75.10
2018-02-21T02:14:41.078Z,75.20
2018-02-21T02:17:07.330Z,75.20
2018-02-21T02:19:33.598Z,75.20
2018-02-21T02:21:59.910Z,75.30
2018-02-21T02:24:26.168Z,76.80
2018-02-21T02:26:53.195Z,76.60
2018-02-21T02:29:19.444Z,76.60
2018-02-21T02:31:45.712Z,75.30
2018-02-21T02:34:11.968Z,74.00
2018-02-21T02:36:38.335Z,74.20
2018-02-21T02:39:17.796Z,73.50
2018-02-21T02:41:44.782Z,73.30
2018-02-21T02:44:11.006Z,73.30
2018-02-21T02:46:37.272Z,73.90
2018-02-21T02:49:03.517Z,75.40
2018-02-21T02:51:29.805Z,75.80
2018-02-21T02:53:59.617Z,74.90
2018-02-21T02:56:25.893Z,74.90
2018-02-21T02:58:52.177Z,74.00
2018-02-21T03:01:19.128Z,72.80
2018-02-21T03:03:45.343Z,72.80
2018-02-21T03:06:11.553Z,73.40
2018-02-21T03:08:38.558Z,72.80
2018-02-21T03:11:05.900Z,72.60
2018-02-21T03:13:32.160Z,71.60
2018-02-21T03:15:58.470Z,69.50
2018-02-21T03:18:25.485Z,69.20
2018-02-21T03:20:51.776Z,69.10
2018-02-21T03:23:18.014Z,69.60
2018-02-21T03:25:45.035Z,69.50
2018-02-21T03:28:11.327Z,69.50
2018-02-21T03:30:38.297Z,68.00
2018-02-21T03:33:04.544Z,68.00
2018-02-21T03:35:30.845Z,68.30
2018-02-21T03:37:57.063Z,69.20
2018-02-21T03:40:23.303Z,69.50
2018-02-21T03:42:49.568Z,69.50
2018-02-21T03:45:15.828Z,69.80
2018-02-21T03:47:42.839Z,69.40
2018-02-21T03:50:09.067Z,69.40
2018-02-21T03:52:35.311Z,68.50
2018-02-21T03:55:01.568Z,68.40
2018-02-21T03:57:27.844Z,67.90
2018-02-21T03:59:54.946Z,67.80
2018-02-21T04:02:21.200Z,67.80
2018-02-21T04:04:47.468Z,68.10
2018-02-21T04:07:13.725Z,68.00
2018-02-21T04:09:40.778Z,68.30
2018-02-21T04:12:07.038Z,67.90
2018-02-21T04:14:33.339Z,67.20
2018-02-21T04:16:59.561Z,66.90
2018-02-21T04:19:25.820Z,67.60
2018-02-21T04:21:52.061Z,67.90
2018-02-21T04:24:18.389Z,67.60
2018-02-21T04:26:44.636Z,66.90
2018-02-21T04:29:10.884Z,67.80
2018-02-21T04:31:37.278Z,67.10
2018-02-21T04:34:03.551Z,66.60
2018-02-21T04:36:29.779Z,67.40
2018-02-21T04:38:56.035Z,67.10
2018-02-21T04:41:22.370Z,67.50
2018-02-21T04:43:48.654Z,68.60
2018-02-21T04:46:14.886Z,67.80
2018-02-21T04:48:41.189Z,67.10
2018-02-21T04:51:07.603Z,67.70
2018-02-21T04:53:34.652Z,67.80
2018-02-21T04:56:06.957Z,67.70
2018-02-21T04:58:44.862Z,67.30
2018-02-21T05:01:11.167Z,67.30
2018-02-21T05:03:37.482Z,67.60
2018-02-21T05:06:03.700Z,67.90
2018-02-21T05:08:30.685Z,67.70
2018-02-21T05:10:56.925Z,67.70
2018-02-21T05:13:23.209Z,68.50
2018-02-21T05:15:49.456Z,68.30
2018-02-21T05:18:15.800Z,68.00
2018-02-21T05:20:42.082Z,67.10
2018-02-21T05:23:08.382Z,68.00
2018-02-21T05:25:34.648Z,68.10
2018-02-21T05:28:01.642Z,67.50
2018-02-21T05:30:27.929Z,67.50
2018-02-21T05:32:54.199Z,68.30
2018-02-21T05:35:20.478Z,68.20
2018-02-21T05:37:47.484Z,66.40
2018-02-21T05:40:14.498Z,65.80
2018-02-21T05:42:40.762Z,65.80
2018-02-21T05:45:07.075Z,66.00
2018-02-21T05:47:33.340Z,67.30
2018-02-21T05:49:59.579Z,66.80
2018-02-21T05:52:25.877Z,67.30
2018-02-21T05:54:52.428Z,67.70
2018-02-21T05:57:18.708Z,67.00
2018-02-21T06:00:00.741Z,67.00
2018-02-21T06:02:27.057Z,67.50
2018-02-21T06:04:53.315Z,67.50
2018-02-21T06:07:19.657Z,68.70
2018-02-21T06:09:45.954Z,68.40
2018-02-21T06:12:12.214Z,68.60
2018-02-21T06:14:38.494Z,68.40
2018-02-21T06:17:04.744Z,68.10
2018-02-21T06:19:30.981Z,67.80
2018-02-21T06:21:57.216Z,68.00
2018-02-21T06:24:23.543Z,69.10
2018-02-21T06:26:50.565Z,69.00
2018-02-21T06:29:16.792Z,69.00
2018-02-21T06:31:44.895Z,69.40
2018-02-21T06:34:12.205Z,69.20
2018-02-21T06:36:40.460Z,70.00
2018-02-21T06:39:06.749Z,69.10
2018-02-21T06:41:33.026Z,68.20
2018-02-21T06:43:59.294Z,68.60
2018-02-21T06:46:25.594Z,68.30
2018-02-21T06:48:52.602Z,68.10
2018-02-21T06:51:18.882Z,68.10
2018-02-21T06:53:45.899Z,68.70
2018-02-21T06:56:12.201Z,68.60
2018-02-21T06:58:39.168Z,68.40
2018-02-21T07:01:05.411Z,68.40
2018-02-21T07:03:31.699Z,68.30
2018-02-21T07:06:00.099Z,69.00
2018-02-21T07:08:26.401Z,69.30
2018-02-21T07:10:52.701Z,69.40
2018-02-21T07:13:18.970Z,69.40
2018-02-21T07:15:45.333Z,68.30
2018-02-21T07:18:11.610Z,67.90
2018-02-21T07:20:37.995Z,68.10
2018-02-21T07:23:04.324Z,68.50
2018-02-21T07:25:37.324Z,67.30
2018-02-21T07:28:03.578Z,66.70
2018-02-21T07:30:30.609Z,66.50
2018-02-21T07:32:56.912Z,66.40
2018-02-21T07:35:23.188Z,67.70
2018-02-21T07:37:49.737Z,68.80
2018-02-21T07:40:16.010Z,68.80
2018-02-21T07:42:42.261Z,68.50
2018-02-21T07:45:09.269Z,68.50
2018-02-21T07:47:35.579Z,68.40
2018-02-21T07:50:01.883Z,66.50
2018-02-21T07:52:28.898Z,66.70
2018-02-21T07:54:55.184Z,66.50
2018-02-21T07:57:28.490Z,67.10
2018-02-21T07:59:54.708Z,66.60
2018-02-21T08:02:21.103Z,66.50
2018-02-21T08:04:47.405Z,65.30
2018-02-21T08:07:13.698Z,64.90
2018-02-21T08:09:39.938Z,66.20
2018-02-21T08:12:06.221Z,66.90
2018-02-21T08:14:32.636Z,66.10
2018-02-21T08:16:58.902Z,65.90
2018-02-21T08:19:25.193Z,66.50
2018-02-21T08:21:54.323Z,66.80
2018-02-21T08:24:20.655Z,66.80
2018-02-21T08:26:46.908Z,67.20
2018-02-21T08:29:13.214Z,67.00
2018-02-21T08:31:40.229Z,65.90
2018-02-21T08:34:06.525Z,65.90
2018-02-21T08:36:32.785Z,65.70
2018-02-21T08:38:59.093Z,65.70
2018-02-21T08:41:25.386Z,66.10
2018-02-21T08:43:51.654Z,67.50
2018-02-21T08:46:18.670Z,64.90
2018-02-21T08:48:44.922Z,64.80
2018-02-21T08:51:11.233Z,64.00
2018-02-21T08:53:38.246Z,64.40
2018-02-21T08:56:04.473Z,64.20
2018-02-21T08:58:30.767Z,65.00
2018-02-21T09:00:57.746Z,65.80
2018-02-21T09:03:24.061Z,65.00
2018-02-21T09:05:51.078Z,65.10
2018-02-21T09:08:17.354Z,64.90
2018-02-21T09:10:43.613Z,64.30
2018-02-21T09:13:10.687Z,65.00
2018-02-21T09:15:37.001Z,64.90
2018-02-21T09:18:03.351Z,65.00
2018-02-21T09:20:29.637Z,64.80
2018-02-21T09:22:55.919Z,63.70
2018-02-21T09:25:22.230Z,63.80
2018-02-21T09:27:48.584Z,64.50
2018-02-21T09:30:14.932Z,64.60
2018-02-21T09:32:41.233Z,65.00
2018-02-21T09:35:07.531Z,64.60
2018-02-21T09:37:33.810Z,63.90
2018-02-21T09:40:00.851Z,63.80
2018-02-21T09:42:27.181Z,63.80
2018-02-21T09:44:53.655Z,63.20
2018-02-21T09:47:19.982Z,62.40
2018-02-21T09:49:47.373Z,62.40
2018-02-21T09:52:14.461Z,61.10
2018-02-21T09:54:40.785Z,61.10
2018-02-21T09:57:07.037Z,60.10
2018-02-21T09:59:33.325Z,59.50
2018-02-21T10:01:59.624Z,59.30
2018-02-21T10:04:26.017Z,59.80
2018-02-21T10:06:53.170Z,60.00
2018-02-21T10:09:19.646Z,60.00
2018-02-21T10:11:46.700Z,59.70
2018-02-21T10:14:13.814Z,58.90
2018-02-21T10:16:40.111Z,58.90
2018-02-21T10:19:07.124Z,58.00
2018-02-21T10:21:33.378Z,58.00
2018-02-21T10:23:59.659Z,57.60
2018-02-21T10:26:25.969Z,58.20
2018-02-21T10:28:53.067Z,56.90
2018-02-21T10:31:20.194Z,57.40
2018-02-21T10:33:48.162Z,58.00
2018-02-21T10:36:14.459Z,57.90
2018-02-21T10:38:40.762Z,58.60
2018-02-21T10:41:14.254Z,57.90
2018-02-21T10:43:40.546Z,57.90
2018-02-21T10:46:06.836Z,58.70
2018-02-21T10:48:33.136Z,58.30
2018-02-21T10:51:00.210Z,59.00
2018-02-21T10:53:26.515Z,59.00
2018-02-21T10:55:52.779Z,58.60
2018-02-21T10:58:19.872Z,58.60
2018-02-21T11:00:52.307Z,58.60
2018-02-21T11:03:18.609Z,59.10
2018-02-21T11:05:44.862Z,57.80
2018-02-21T11:08:11.177Z,58.00
2018-02-21T11:10:37.477Z,58.10
2018-02-21T11:13:04.779Z,58.20
2018-02-21T11:15:31.039Z,58.10
2018-02-21T11:17:57.387Z,57.80
2018-02-21T11:20:23.705Z,57.80
2018-02-21T11:22:50.003Z,57.70
2018-02-21T11:25:16.261Z,57.40
2018-02-21T11:27:43.269Z,58.00
2018-02-21T11:30:09.594Z,58.00
2018-02-21T11:32:36.015Z,57.90
2018-02-21T11:35:02.319Z,57.30
2018-02-21T11:37:28.610Z,56.60
2018-02-21T11:39:55.088Z,56.10
2018-02-21T11:42:21.351Z,56.80
2018-02-21T11:44:47.618Z,57.10
2018-02-21T11:47:14.685Z,56.00
2018-02-21T11:49:46.074Z,55.90
2018-02-21T11:52:12.399Z,56.00
2018-02-21T11:54:39.530Z,58.30
2018-02-21T11:57:05.800Z,58.30
2018-02-21T11:59:32.186Z,54.60
2018-02-21T12:02:01.950Z,53.10
2018-02-21T12:04:28.216Z,53.30
2018-02-21T12:06:54.480Z,54.00
2018-02-21T12:09:20.791Z,54.00
2018-02-21T12:11:48.802Z,54.60
2018-02-21T12:14:15.036Z,54.50
2018-02-21T12:16:41.298Z,54.80
2018-02-21T12:19:07.664Z,54.10
2018-02-21T12:21:34.019Z,53.90
2018-02-21T12:24:00.276Z,54.10
2018-02-21T12:26:26.574Z,53.80
2018-02-21T12:28:52.829Z,53.60
2018-02-21T12:31:20.332Z,52.90
2018-02-21T12:33:51.254Z,52.80
2018-02-21T12:36:18.322Z,51.80
2018-02-21T12:41:44.503Z,50.90
2018-02-21T12:44:10.836Z,51.30
2018-02-21T12:46:37.081Z,51.20
2018-02-21T12:49:03.245Z,50.90
2018-02-21T12:51:29.410Z,50.00
2018-02-21T12:53:55.563Z,49.40
2018-02-21T12:56:21.733Z,49.40
2018-02-21T12:58:47.925Z,49.30
2018-02-21T13:01:14.139Z,49.40
2018-02-21T13:03:41.300Z,50.40
2018-02-21T13:06:07.517Z,50.50
2018-02-21T13:08:33.788Z,50.40
2018-02-21T13:11:00.721Z,50.40
2018-02-21T13:13:26.937Z,50.40
2018-02-21T13:15:53.149Z,50.00
2018-02-21T13:18:20.091Z,49.40
2018-02-21T13:20:46.277Z,49.40
2018-02-21T13:23:13.545Z,49.40
2018-02-21T13:25:40.029Z,49.10
2018-02-21T13:28:06.216Z,49.50
2018-02-21T13:30:32.359Z,49.30
2018-02-21T13:32:58.631Z,49.60
2018-02-21T13:35:28.955Z,50.40
2018-02-21T13:37:55.300Z,50.20
2018-02-21T13:40:21.509Z,50.40
2018-02-21T13:42:47.652Z,50.30
2018-02-21T13:45:19.409Z,50.00
2018-02-21T13:47:45.625Z,49.50
2018-02-21T13:50:11.821Z,49.30
2018-02-21T13:52:37.973Z,49.40
2018-02-21T13:55:04.151Z,50.10
2018-02-21T13:57:31.101Z,50.50
2018-02-21T13:59:57.233Z,50.20
2018-02-21T14:02:23.450Z,49.30
2018-02-21T14:04:51.811Z,49.50
2018-02-21T14:07:17.975Z,48.20
2018-02-21T14:09:44.117Z,48.60
2018-02-21T14:12:10.312Z,49.60
2018-02-21T14:14:37.197Z,49.40
2018-02-21T14:17:03.339Z,49.40
2018-02-21T14:19:34.027Z,50.10
2018-02-21T14:22:00.183Z,49.70
2018-02-21T14:24:27.100Z,49.70
2018-02-21T14:26:53.543Z,49.60
2018-02-21T14:29:19.724Z,50.70
2018-02-21T14:31:46.626Z,51.40
2018-02-21T14:34:12.759Z,51.40
2018-02-21T14:36:38.927Z,51.00
2018-02-21T14:39:05.083Z,50.60
2018-02-21T14:41:31.270Z,50.40
2018-02-21T14:43:57.449Z,50.20
2018-02-21T14:46:27.420Z,49.60
2018-02-21T14:48:54.861Z,50.40
2018-02-21T14:51:21.819Z,50.70
2018-02-21T14:53:48.725Z,50.70
2018-02-21T14:56:14.894Z,50.60
2018-02-21T14:58:41.044Z,51.20
2018-02-21T15:01:07.216Z,51.00
2018-02-21T15:03:34.102Z,50.70
2018-02-21T15:06:00.238Z,50.70
2018-02-21T15:08:26.482Z,51.20
2018-02-21T15:10:52.654Z,50.90
2018-02-21T15:13:18.788Z,50.70
2018-02-21T15:15:44.956Z,49.10
2018-02-21T15:18:11.849Z,49.20
2018-02-21T15:20:38.030Z,49.10
2018-02-21T15:23:04.179Z,48.90
2018-02-21T15:25:31.136Z,48.70
2018-02-21T15:27:57.318Z,48.70
2018-02-21T15:30:23.564Z,48.10
2018-02-21T15:32:49.777Z,48.00
2018-02-21T15:35:15.962Z,49.50
2018-02-21T15:37:42.914Z,50.00
2018-02-21T15:40:09.089Z,50.00
2018-02-21T15:42:35.277Z,50.80
2018-02-21T15:45:01.421Z,51.50
2018-02-21T15:47:27.590Z,51.20
2018-02-21T15:49:53.783Z,51.50
2018-02-21T15:52:20.749Z,51.20
2018-02-21T15:54:46.941Z,51.20
2018-02-21T15:57:13.101Z,50.90
2018-02-21T15:59:40.035Z,51.00
2018-02-21T16:02:06.198Z,50.90
2018-02-21T16:04:33.127Z,51.30
2018-02-21T16:06:59.346Z,51.20
2018-02-21T16:09:25.575Z,51.90
2018-02-21T16:11:51.807Z,51.30
2018-02-21T16:14:20.047Z,51.40
2018-02-21T16:16:46.202Z,51.40
2018-02-21T16:19:12.409Z,51.40
2018-02-21T16:21:40.230Z,51.70
2018-02-21T16:24:06.459Z,52.10
2018-02-21T16:26:33.454Z,52.30
2018-02-21T16:28:59.605Z,52.20
2018-02-21T16:31:25.800Z,51.70
2018-02-21T16:33:52.055Z,51.70
2018-02-21T16:36:18.293Z,51.90
2018-02-21T16:38:44.487Z,52.20
2018-02-21T16:41:10.665Z,52.00
2018-02-21T16:43:37.585Z,51.70
2018-02-21T16:46:03.766Z,51.60
2018-02-21T16:48:30.675Z,51.30
2018-02-21T16:50:57.008Z,50.50
2018-02-21T16:53:23.309Z,50.00
2018-02-21T16:55:50.250Z,50.30
2018-02-21T16:58:17.241Z,49.60
2018-02-21T17:00:43.382Z,49.50
2018-02-21T17:03:09.573Z,50.40
2018-02-21T17:05:35.731Z,50.80
2018-02-21T17:08:01.892Z,50.50
2018-02-21T17:10:28.123Z,50.30
2018-02-21T17:12:55.072Z,49.90
2018-02-21T17:15:22.145Z,49.80
2018-02-21T17:17:48.328Z,49.80
2018-02-21T17:20:14.521Z,49.30
2018-02-21T17:22:41.449Z,49.50
2018-02-21T17:25:10.917Z,50.10
2018-02-21T17:27:37.117Z,52.30
2018-02-21T17:30:03.302Z,49.50
2018-02-21T17:32:34.463Z,49.30
2018-02-21T17:35:00.617Z,49.30
2018-02-21T17:37:26.905Z,49.30
2018-02-21T17:39:57.265Z,48.80
2018-02-21T17:42:23.456Z,48.80
2018-02-21T17:44:49.685Z,48.70
2018-02-21T17:47:15.887Z,48.80
2018-02-21T17:49:42.069Z,49.30
2018-02-21T17:52:08.267Z,49.50
2018-02-21T17:54:34.473Z,49.90
2018-02-21T17:57:21.615Z,49.10
2018-02-21T17:59:47.818Z,48.90
2018-02-21T18:02:14.003Z,49.20
2018-02-21T18:04:40.966Z,48.70
2018-02-21T18:07:07.900Z,49.40
2018-02-21T18:09:34.091Z,49.40
2018-02-21T18:12:00.241Z,48.80
2018-02-21T18:14:28.020Z,48.50
2018-02-21T18:16:54.236Z,48.70
2018-02-21T18:19:22.551Z,48.50
2018-02-21T18:21:48.766Z,49.80
2018-02-21T18:24:15.017Z,50.10
2018-02-21T18:26:48.162Z,50.20
2018-02-21T18:29:14.318Z,50.30
2018-02-21T18:31:41.227Z,50.50
2018-02-21T18:34:07.490Z,50.90
2018-02-21T18:36:33.682Z,50.90
2018-02-21T18:38:59.861Z,51.10
2018-02-21T18:41:27.135Z,52.00
2018-02-21T18:43:53.423Z,52.10
2018-02-21T18:46:19.639Z,51.40
2018-02-21T18:48:46.666Z,51.40
2018-02-21T18:51:12.891Z,51.40
2018-02-21T18:53:39.033Z,51.30
2018-02-21T18:56:05.265Z,52.20
2018-02-21T18:58:31.399Z,53.20
2018-02-21T19:00:57.564Z,53.70
2018-02-21T19:03:23.740Z,54.80
2018-02-21T19:05:50.868Z,55.20
2018-02-21T19:08:17.040Z,55.90
2018-02-21T19:10:43.222Z,55.40
2018-02-21T19:13:09.403Z,55.70
2018-02-21T19:15:35.585Z,55.90
2018-02-21T19:18:01.858Z,56.10
2018-02-21T19:20:28.033Z,55.80
2018-02-21T19:22:56.326Z,55.60
2018-02-21T19:25:22.516Z,55.90
2018-02-21T19:27:48.707Z,56.50
2018-02-21T19:30:14.853Z,56.30
2018-02-21T19:32:41.059Z,55.80
2018-02-21T19:35:07.227Z,55.30
2018-02-21T19:37:33.387Z,55.90
2018-02-21T19:40:00.301Z,56.90
2018-02-21T19:42:52.064Z,57.40
2018-02-21T19:45:18.272Z,57.00
2018-02-21T19:47:44.430Z,56.40
2018-02-21T19:50:10.724Z,56.50
2018-02-21T19:52:36.917Z,56.80
2018-02-21T19:55:03.124Z,56.80
2018-02-21T19:57:29.354Z,57.00
2018-02-21T19:59:55.668Z,57.40
2018-02-21T20:02:22.621Z,58.80
2018-02-21T20:04:49.572Z,59.30
2018-02-21T20:07:16.465Z,59.50
2018-02-21T20:09:42.655Z,59.50
2018-02-21T20:12:08.838Z,59.50
2018-02-21T20:14:35.013Z,59.60
2018-02-21T20:17:01.166Z,58.90
2018-02-21T20:19:27.743Z,58.70
2018-02-21T20:21:54.653Z,59.10
2018-02-21T20:24:20.867Z,59.10
2018-02-21T20:26:47.009Z,59.20
2018-02-21T20:29:13.134Z,59.40
2018-02-21T20:31:39.303Z,59.70
2018-02-21T20:34:05.519Z,59.50
2018-02-21T20:36:31.683Z,59.50
2018-02-21T20:38:57.875Z,59.40
2018-02-21T20:41:24.804Z,59.20
2018-02-21T20:43:51.003Z,59.20
2018-02-21T20:46:19.255Z,59.00
2018-02-21T20:48:46.168Z,59.50
2018-02-21T20:51:13.433Z,59.50
2018-02-21T20:53:39.659Z,59.70
2018-02-21T20:56:05.837Z,59.50
2018-02-21T20:58:32.005Z,59.50
2018-02-21T21:00:58.921Z,59.50
2018-02-21T21:03:25.848Z,59.60
2018-02-21T21:05:53.144Z,59.60
2018-02-21T21:08:19.338Z,60.20
2018-02-21T21:10:48.992Z,60.00
2018-02-21T21:13:16.304Z,60.40
2018-02-21T21:15:43.290Z,62.10
2018-02-21T21:18:11.273Z,62.00
2018-02-21T21:20:51.631Z,63.20
2018-02-21T21:23:17.893Z,63.00
2018-02-21T21:25:44.181Z,63.30
2018-02-21T21:28:10.414Z,63.50
2018-02-21T21:30:37.388Z,64.20
2018-02-21T21:33:03.698Z,64.30
2018-02-21T21:35:29.918Z,64.50
2018-02-21T21:37:56.285Z,64.90
2018-02-21T21:40:22.545Z,65.00
2018-02-21T21:42:49.924Z,65.40
2018-02-21T21:45:16.981Z,65.80
2018-02-21T21:47:43.254Z,65.70
2018-02-21T21:50:09.534Z,65.80
2018-02-21T21:52:39.834Z,65.80
2018-02-21T21:55:10.329Z,66.10
2018-02-21T21:57:36.582Z,65.30
2018-02-21T22:00:02.896Z,65.10
2018-02-21T22:02:34.462Z,65.20
2018-02-21T22:05:00.731Z,65.50
2018-02-21T22:07:27.000Z,65.80
2018-02-21T22:09:54.049Z,66.20
2018-02-21T22:12:20.482Z,66.10
2018-02-21T22:14:50.868Z,66.70
2018-02-21T22:17:17.135Z,66.70
2018-02-21T22:19:43.358Z,66.80
2018-02-21T22:22:09.611Z,67.10
2018-02-21T22:24:35.927Z,67.30
2018-02-21T22:27:02.172Z,67.40
2018-02-21T22:29:28.486Z,67.30
2018-02-21T22:31:55.508Z,67.80
2018-02-21T22:34:21.753Z,67.70
2018-02-21T22:36:48.685Z,68.10
2018-02-21T22:39:15.027Z,68.10
2018-02-21T22:41:41.276Z,68.10
2018-02-21T22:44:08.360Z,68.60
2018-02-21T22:46:34.650Z,68.70
2018-02-21T22:49:00.942Z,68.70
2018-02-21T22:51:28.326Z,68.60
2018-02-21T22:53:54.666Z,68.60
2018-02-21T22:56:20.983Z,68.60
2018-02-21T22:58:47.261Z,68.60
2018-02-21T23:01:14.262Z,68.90
2018-02-21T23:03:40.570Z,68.80
2018-02-21T23:06:07.555Z,69.00
2018-02-21T23:08:33.823Z,68.90
2018-02-21T23:11:00.073Z,69.00
2018-02-21T23:13:26.381Z,69.30
2018-02-21T23:15:52.729Z,69.80
2018-02-21T23:18:20.759Z,69.70
2018-02-21T23:20:46.994Z,69.70
2018-02-21T23:23:13.321Z,69.90
2018-02-21T23:25:46.355Z,70.00
2018-02-21T23:28:13.525Z,69.70
2018-02-21T23:30:39.749Z,69.60
2018-02-21T23:33:07.083Z,69.80
2018-02-21T23:35:33.350Z,70.00
2018-02-21T23:38:01.657Z,70.30
2018-02-21T23:40:27.997Z,70.30
2018-02-21T23:42:54.992Z,70.30
2018-02-21T23:45:21.413Z,71.00
2018-02-21T23:47:48.394Z,70.50
2018-02-21T23:50:14.785Z,70.50
2018-02-21T23:52:41.179Z,70.60
2018-02-21T23:55:07.386Z,70.70
2018-02-21T23:57:34.430Z,71.00
